createdAt,value
2019-05-25T00:01:31.490Z,13.10
2019-05-25T00:03:59.893Z,13.10
2019-05-25T00:06:28.305Z,13.20
2019-05-25T00:08:56.725Z,13.10
2019-05-25T00:11:25.257Z,13.00
2019-05-25T00:13:53.669Z,12.90
2019-05-25T00:16:22.082Z,12.90
2019-05-25T00:18:50.489Z,12.80
2019-05-25T00:21:18.904Z,12.80
2019-05-25T00:23:47.305Z,12.90
2019-05-25T00:26:15.705Z,12.80
2019-05-25T00:28:44.117Z,12.80
2019-05-25T00:31:12.535Z,12.80
2019-05-25T00:36:09.081Z,12.60
2019-05-25T00:38:37.500Z,12.60
2019-05-25T00:41:05.903Z,12.50
2019-05-25T00:43:34.320Z,12.50
2019-05-25T00:46:02.729Z,12.50
2019-05-25T00:48:31.142Z,12.50
2019-05-25T00:50:59.555Z,12.50
2019-05-25T00:53:28.044Z,12.40
2019-05-25T00:55:56.465Z,12.40
2019-05-25T00:58:24.893Z,12.40
2019-05-25T01:03:21.389Z,12.40
2019-05-25T01:05:49.787Z,12.30
2019-05-25T01:08:18.204Z,12.20
2019-05-25T01:10:46.657Z,12.20
2019-05-25T01:13:15.105Z,12.20
2019-05-25T01:15:43.508Z,12.20
2019-05-25T01:18:11.996Z,12.20
2019-05-25T01:20:40.404Z,12.20
2019-05-25T01:25:36.893Z,12.10
2019-05-25T01:28:05.315Z,12.00
2019-05-25T01:30:33.805Z,12.00
2019-05-25T01:33:02.205Z,12.00
2019-05-25T01:35:30.623Z,12.10
2019-05-25T01:37:59.054Z,12.10
2019-05-25T01:40:27.513Z,12.10
2019-05-25T01:42:55.920Z,12.00
2019-05-25T01:45:24.338Z,12.00
2019-05-25T01:47:52.736Z,12.00
2019-05-25T01:50:21.158Z,11.90
2019-05-25T01:52:49.568Z,11.90
2019-05-25T01:55:17.980Z,11.80
2019-05-25T01:57:46.382Z,11.80
2019-05-25T02:00:16.609Z,11.80
2019-05-25T02:02:45.015Z,11.70
2019-05-25T02:05:13.688Z,11.70
2019-05-25T02:07:42.097Z,11.70
2019-05-25T02:10:11.361Z,11.60
2019-05-25T02:15:10.704Z,11.70
2019-05-25T02:17:39.096Z,11.60
2019-05-25T02:20:08.774Z,11.60
2019-05-25T02:25:16.996Z,11.50
2019-05-25T02:28:49.785Z,11.50
2019-05-25T02:31:18.195Z,11.50
2019-05-25T02:33:46.592Z,11.40
2019-05-25T02:36:15.041Z,11.40
2019-05-25T02:38:43.752Z,11.30
2019-05-25T02:41:12.172Z,11.20
2019-05-25T02:43:40.585Z,11.20
2019-05-25T02:46:08.979Z,11.10
2019-05-25T02:48:37.392Z,11.00
2019-05-25T02:53:33.873Z,11.10
2019-05-25T02:58:30.346Z,11.20
2019-05-25T03:03:27.000Z,11.20
2019-05-25T03:05:56.748Z,11.20
2019-05-25T03:08:25.533Z,11.20
2019-05-25T03:10:55.190Z,11.20
2019-05-25T03:13:23.601Z,11.30
2019-05-25T03:18:20.100Z,11.30
2019-05-25T03:20:48.525Z,11.30
2019-05-25T03:23:16.922Z,11.30
2019-05-25T03:25:49.758Z,11.40
2019-05-25T03:28:15.485Z,11.40
2019-05-25T03:30:43.897Z,11.30
2019-05-25T03:33:12.310Z,11.20
2019-05-25T03:35:40.744Z,11.20
2019-05-25T03:38:09.201Z,11.30
2019-05-25T03:43:05.688Z,11.30
2019-05-25T03:45:34.551Z,11.20
2019-05-25T03:48:02.960Z,11.20
2019-05-25T03:50:31.372Z,11.10
2019-05-25T03:52:59.772Z,11.00
2019-05-25T03:55:28.252Z,11.00
2019-05-25T03:57:57.049Z,11.00
2019-05-25T04:00:37.964Z,11.00
2019-05-25T04:03:06.732Z,11.10
2019-05-25T04:05:35.208Z,11.10
2019-05-25T04:08:04.072Z,11.10
2019-05-25T04:13:00.560Z,11.20
2019-05-25T04:15:28.979Z,11.20
2019-05-25T04:17:57.858Z,11.20
2019-05-25T04:20:26.348Z,11.30
2019-05-25T04:22:54.753Z,11.30
2019-05-25T04:25:23.162Z,11.30
2019-05-25T04:30:20.098Z,11.40
2019-05-25T04:32:48.509Z,11.40
2019-05-25T04:35:36.255Z,11.50
2019-05-25T04:38:04.681Z,11.60
2019-05-25T04:43:01.160Z,11.70
2019-05-25T04:45:29.569Z,11.70
2019-05-25T04:47:57.983Z,11.80
2019-05-25T04:50:26.388Z,11.90
2019-05-25T04:52:54.806Z,11.90
2019-05-25T04:55:23.214Z,11.90
2019-05-25T04:57:51.640Z,12.00
2019-05-25T05:02:48.127Z,12.10
2019-05-25T05:05:16.922Z,12.20
2019-05-25T05:07:45.385Z,12.30
2019-05-25T05:10:14.147Z,12.30
2019-05-25T05:12:42.556Z,12.40
2019-05-25T05:15:11.469Z,12.60
2019-05-25T05:17:39.904Z,12.70
2019-05-25T05:20:27.646Z,12.80
2019-05-25T05:22:56.052Z,12.90
2019-05-25T05:27:52.573Z,13.10
2019-05-25T05:30:24.065Z,13.20
2019-05-25T05:32:52.480Z,13.30
2019-05-25T05:35:20.885Z,13.40
2019-05-25T05:37:49.380Z,13.50
2019-05-25T05:40:17.888Z,13.60
2019-05-25T05:42:48.777Z,13.70
2019-05-25T05:45:17.189Z,13.80
2019-05-25T05:50:15.671Z,14.10
2019-05-25T05:52:45.167Z,14.20
2019-05-25T05:55:17.245Z,14.40
2019-05-25T05:57:43.990Z,14.60
2019-05-25T06:00:13.105Z,14.80
2019-05-25T06:02:41.504Z,15.00
2019-05-25T06:05:10.071Z,15.20
2019-05-25T06:10:08.282Z,15.60
2019-05-25T06:12:36.693Z,15.90
2019-05-25T06:15:08.484Z,16.40
2019-05-25T06:17:36.901Z,16.70
2019-05-25T06:20:07.453Z,17.10
2019-05-25T06:22:35.864Z,17.40
2019-05-25T06:25:06.663Z,17.90
2019-05-25T06:27:35.061Z,18.30
2019-05-25T06:30:05.094Z,18.70
2019-05-25T06:32:33.595Z,19.20
2019-05-25T06:35:02.064Z,19.60
2019-05-25T06:37:30.497Z,20.10
2019-05-25T06:42:26.992Z,20.80
2019-05-25T06:47:23.494Z,21.60
2019-05-25T06:49:51.905Z,21.80
2019-05-25T06:52:20.314Z,22.20
2019-05-25T06:54:48.724Z,22.70
2019-05-25T06:57:17.134Z,23.00
2019-05-25T06:59:45.553Z,23.30
2019-05-25T07:02:13.952Z,23.20
2019-05-25T07:04:42.377Z,23.00
2019-05-25T07:09:38.856Z,22.40
2019-05-25T07:14:35.471Z,22.40
2019-05-25T07:19:31.943Z,23.00
2019-05-25T07:24:28.444Z,23.50
2019-05-25T07:26:56.845Z,23.80
2019-05-25T07:29:25.266Z,23.90
2019-05-25T07:31:53.711Z,23.90
2019-05-25T07:34:22.128Z,24.00
2019-05-25T07:36:50.528Z,23.80
2019-05-25T07:39:18.946Z,23.60
2019-05-25T07:41:47.348Z,23.70
2019-05-25T07:46:43.876Z,24.00
2019-05-25T07:49:12.270Z,24.00
2019-05-25T07:51:40.691Z,23.90
2019-05-25T07:54:09.094Z,23.90
2019-05-25T07:56:37.509Z,24.00
2019-05-25T08:01:34.004Z,24.50
2019-05-25T08:04:02.406Z,25.00
2019-05-25T08:06:30.817Z,24.90
2019-05-25T08:08:59.218Z,24.90
2019-05-25T08:13:55.724Z,25.40
2019-05-25T08:16:24.133Z,25.30
2019-05-25T08:18:52.548Z,24.80
2019-05-25T08:21:21.010Z,24.80
2019-05-25T08:23:49.413Z,25.10
2019-05-25T08:26:17.826Z,25.50
2019-05-25T08:28:46.233Z,25.80
2019-05-25T08:31:14.642Z,25.70
2019-05-25T08:36:11.165Z,26.10
2019-05-25T08:38:39.639Z,26.20
2019-05-25T08:41:08.117Z,26.10
2019-05-25T08:46:04.886Z,26.20
2019-05-25T08:48:33.281Z,26.80
2019-05-25T08:51:01.840Z,26.70
2019-05-25T08:53:40.531Z,26.50
2019-05-25T08:58:28.552Z,26.50
2019-05-25T09:08:21.209Z,25.50
2019-05-25T09:10:49.612Z,25.30
2019-05-25T09:15:46.164Z,24.80
2019-05-25T09:18:14.583Z,25.20
2019-05-25T09:20:43.895Z,25.20
2019-05-25T09:23:12.291Z,24.80
2019-05-25T09:25:41.428Z,24.50
2019-05-25T09:30:37.918Z,24.80
2019-05-25T09:33:06.338Z,25.00
2019-05-25T09:35:34.735Z,25.00
2019-05-25T09:38:03.612Z,25.30
2019-05-25T09:40:33.654Z,25.50
2019-05-25T09:43:02.159Z,25.60
2019-05-25T09:45:30.617Z,25.80
2019-05-25T09:47:59.253Z,25.40
2019-05-25T09:50:27.639Z,25.30
2019-05-25T09:55:24.126Z,24.80
2019-05-25T09:57:52.532Z,24.70
2019-05-25T10:00:21.580Z,24.40
2019-05-25T10:02:50.583Z,24.00
2019-05-25T10:05:20.049Z,24.10
2019-05-25T10:10:18.368Z,23.90
2019-05-25T10:17:43.807Z,24.40
2019-05-25T10:22:40.601Z,24.40
2019-05-25T10:32:36.602Z,24.20
2019-05-25T10:35:07.012Z,24.20
2019-05-25T10:37:35.433Z,23.90
2019-05-25T10:40:07.066Z,23.70
2019-05-25T10:45:07.514Z,23.80
2019-05-25T10:47:35.992Z,23.70
2019-05-25T10:50:09.496Z,23.30
2019-05-25T10:52:37.988Z,23.00
2019-05-25T10:55:10.705Z,23.10
2019-05-25T10:57:39.372Z,23.00
2019-05-25T11:00:10.506Z,23.10
2019-05-25T11:02:38.917Z,23.30
2019-05-25T11:05:08.281Z,23.40
2019-05-25T11:07:36.775Z,23.40
2019-05-25T11:10:07.850Z,23.40
2019-05-25T11:12:36.452Z,23.40
2019-05-25T11:15:08.539Z,23.50
2019-05-25T11:17:37.186Z,23.40
2019-05-25T11:22:37.180Z,23.30
2019-05-25T11:25:09.194Z,23.10
2019-05-25T11:27:37.612Z,23.10
2019-05-25T11:32:37.451Z,23.20
2019-05-25T11:35:09.126Z,23.30
2019-05-25T11:40:09.147Z,23.30
2019-05-25T11:42:37.624Z,23.20
2019-05-25T11:45:07.184Z,23.20
2019-05-25T11:47:35.595Z,23.00
2019-05-25T11:50:06.847Z,22.90
2019-05-25T11:52:35.249Z,22.90
2019-05-25T11:55:08.073Z,23.00
2019-05-25T11:57:36.468Z,23.00
2019-05-25T12:00:07.298Z,23.00
2019-05-25T12:02:35.723Z,23.00
2019-05-25T12:05:12.635Z,23.00
2019-05-25T12:07:44.709Z,23.10
2019-05-25T12:10:12.854Z,23.20
2019-05-25T12:15:09.806Z,23.30
2019-05-25T12:17:38.200Z,23.40
2019-05-25T12:20:07.848Z,23.50
2019-05-25T12:22:36.255Z,23.40
2019-05-25T12:27:35.829Z,23.10
2019-05-25T12:30:07.060Z,23.00
2019-05-25T12:35:05.233Z,22.90
2019-05-25T12:37:34.521Z,22.80
2019-05-25T12:40:03.405Z,22.70
2019-05-25T12:42:51.229Z,22.40
2019-05-25T12:45:20.049Z,22.30
2019-05-25T12:47:48.543Z,22.40
2019-05-25T12:52:45.302Z,22.50
2019-05-25T12:55:13.857Z,22.50
2019-05-25T12:57:42.262Z,22.50
2019-05-25T13:05:09.729Z,22.30
2019-05-25T13:10:07.873Z,22.50
2019-05-25T13:15:08.966Z,22.40
2019-05-25T13:20:25.101Z,22.40
2019-05-25T13:22:53.497Z,22.50
2019-05-25T13:25:21.929Z,22.50
2019-05-25T13:30:18.472Z,22.50
2019-05-25T13:32:46.879Z,22.40
2019-05-25T13:35:15.362Z,22.20
2019-05-25T13:37:43.760Z,22.00
2019-05-25T13:40:12.686Z,22.00
2019-05-25T13:42:41.135Z,22.00
2019-05-25T13:45:09.672Z,22.10
2019-05-25T13:47:38.092Z,22.10
2019-05-25T13:52:35.924Z,21.70
2019-05-25T13:55:05.294Z,21.60
2019-05-25T13:57:33.751Z,21.70
2019-05-25T14:00:02.631Z,21.70
2019-05-25T14:02:31.128Z,21.60
2019-05-25T14:04:59.533Z,21.60
2019-05-25T14:07:27.945Z,21.50
2019-05-25T14:09:56.360Z,21.50
2019-05-25T14:14:52.885Z,21.40
2019-05-25T14:17:21.313Z,21.30
2019-05-25T14:19:49.721Z,21.30
2019-05-25T14:22:18.214Z,21.20
2019-05-25T14:24:46.618Z,21.20
2019-05-25T14:27:15.032Z,21.20
2019-05-25T14:34:47.097Z,21.10
2019-05-25T14:37:15.508Z,21.10
2019-05-25T14:42:12.129Z,20.90
2019-05-25T14:47:08.661Z,20.80
2019-05-25T14:49:37.053Z,20.80
2019-05-25T14:52:05.571Z,20.70
2019-05-25T14:54:34.048Z,20.70
2019-05-25T14:57:02.749Z,20.60
2019-05-25T14:59:31.152Z,20.50
2019-05-25T15:02:02.756Z,20.50
2019-05-25T15:04:30.059Z,20.40
2019-05-25T15:06:58.578Z,20.40
2019-05-25T15:09:27.088Z,20.40
2019-05-25T15:11:55.496Z,20.20
2019-05-25T15:14:23.900Z,20.00
2019-05-25T15:16:52.351Z,19.90
2019-05-25T15:19:20.876Z,19.80
2019-05-25T15:21:49.400Z,19.80
2019-05-25T15:24:17.837Z,19.80
2019-05-25T15:26:46.257Z,19.70
2019-05-25T15:29:14.663Z,19.60
2019-05-25T15:31:43.076Z,19.60
2019-05-25T15:34:11.471Z,19.60
2019-05-25T15:36:39.893Z,19.60
2019-05-25T15:39:09.637Z,19.30
2019-05-25T15:41:38.065Z,18.80
2019-05-25T15:44:06.481Z,18.40
2019-05-25T15:49:02.961Z,17.90
2019-05-25T15:51:31.365Z,17.80
2019-05-25T15:53:59.786Z,17.70
2019-05-25T15:56:28.185Z,17.70
2019-05-25T15:59:04.609Z,17.70
2019-05-25T16:01:33.092Z,17.70
2019-05-25T16:06:29.577Z,17.20
2019-05-25T16:08:57.989Z,17.00
2019-05-25T16:11:26.400Z,16.90
2019-05-25T16:13:54.814Z,16.90
2019-05-25T16:16:29.675Z,17.00
2019-05-25T16:18:53.429Z,16.80
2019-05-25T16:21:21.832Z,16.70
2019-05-25T16:23:50.330Z,16.90
2019-05-25T16:28:46.824Z,16.90
2019-05-25T16:31:15.285Z,17.10
2019-05-25T16:33:43.705Z,17.20
2019-05-25T16:36:12.100Z,17.40
2019-05-25T16:38:40.516Z,17.50
2019-05-25T16:41:08.912Z,17.40
2019-05-25T16:43:37.329Z,17.30
2019-05-25T16:46:05.738Z,17.30
2019-05-25T16:48:34.148Z,17.40
2019-05-25T16:51:02.587Z,17.50
2019-05-25T16:53:37.481Z,17.50
2019-05-25T16:56:05.880Z,17.70
2019-05-25T16:58:34.291Z,17.80
2019-05-25T17:01:02.683Z,17.90
2019-05-25T17:03:31.139Z,17.90
2019-05-25T17:05:59.605Z,18.00
2019-05-25T17:08:47.357Z,17.90
2019-05-25T17:11:15.762Z,17.90
2019-05-25T17:16:12.432Z,17.80
2019-05-25T17:21:08.913Z,17.80
2019-05-25T17:23:37.419Z,17.80
2019-05-25T17:26:05.848Z,17.80
2019-05-25T17:28:34.325Z,17.90
2019-05-25T17:33:44.726Z,17.90
2019-05-25T17:36:00.978Z,17.80
2019-05-25T17:38:29.380Z,17.80
2019-05-25T17:40:57.786Z,17.80
2019-05-25T17:43:26.197Z,17.80
2019-05-25T17:48:22.693Z,17.80
2019-05-25T17:53:19.169Z,17.70
2019-05-25T17:55:47.577Z,17.70
2019-05-25T17:58:15.977Z,17.60
2019-05-25T18:03:15.147Z,17.60
2019-05-25T18:05:43.573Z,17.60
2019-05-25T18:10:52.238Z,17.60
2019-05-25T18:13:10.339Z,17.50
2019-05-25T18:15:38.803Z,17.50
2019-05-25T18:18:07.957Z,17.50
2019-05-25T18:20:36.522Z,17.50
2019-05-25T18:23:05.251Z,17.50
2019-05-25T18:25:33.661Z,17.50
2019-05-25T18:28:02.113Z,17.40
2019-05-25T18:30:30.898Z,17.40
2019-05-25T18:32:59.328Z,17.40
2019-05-25T18:35:27.803Z,17.30
2019-05-25T18:37:56.204Z,17.30
2019-05-25T18:40:25.190Z,17.20
2019-05-25T18:42:53.586Z,17.10
2019-05-25T18:45:21.993Z,17.10
2019-05-25T18:47:50.396Z,17.00
2019-05-25T18:50:19.449Z,16.90
2019-05-25T18:52:47.849Z,16.90
2019-05-25T18:55:17.401Z,16.90
2019-05-25T18:57:45.804Z,16.80
2019-05-25T19:00:14.741Z,16.80
2019-05-25T19:02:43.136Z,16.90
2019-05-25T19:05:11.624Z,16.80
2019-05-25T19:07:40.031Z,16.80
2019-05-25T19:10:09.585Z,16.70
2019-05-25T19:12:38.026Z,16.70
2019-05-25T19:15:10.120Z,16.70
2019-05-25T19:17:38.597Z,16.60
2019-05-25T19:20:07.690Z,16.50
2019-05-25T19:22:36.082Z,16.50
2019-05-25T19:27:34.365Z,16.40
2019-05-25T19:30:03.060Z,16.30
2019-05-25T19:32:31.473Z,16.30
2019-05-25T19:35:00.329Z,16.30
2019-05-25T19:39:57.074Z,16.20
2019-05-25T19:42:25.496Z,16.20
2019-05-25T19:44:53.902Z,16.20
2019-05-25T19:47:22.321Z,16.10
2019-05-25T19:49:50.725Z,16.10
2019-05-25T19:52:19.132Z,16.10
2019-05-25T19:54:47.532Z,16.00
2019-05-25T19:57:15.948Z,16.00
2019-05-25T19:59:44.447Z,16.00
2019-05-25T20:02:12.860Z,16.00
2019-05-25T20:04:41.271Z,16.00
2019-05-25T20:07:09.680Z,16.00
2019-05-25T20:09:38.080Z,15.90
2019-05-25T20:12:06.649Z,16.00
2019-05-25T20:17:03.145Z,15.90
2019-05-25T20:19:31.613Z,15.90
2019-05-25T20:22:00.041Z,15.80
2019-05-25T20:24:28.445Z,15.80
2019-05-25T20:26:56.862Z,15.80
2019-05-25T20:29:25.269Z,15.80
2019-05-25T20:31:53.677Z,15.70
2019-05-25T20:34:22.097Z,15.70
2019-05-25T20:36:50.502Z,15.60
2019-05-25T20:41:47.061Z,15.50
2019-05-25T20:46:43.609Z,15.50
2019-05-25T20:51:40.101Z,15.50
2019-05-25T20:54:08.502Z,15.40
2019-05-25T20:59:05.014Z,15.30
2019-05-25T21:01:33.460Z,15.20
2019-05-25T21:04:01.900Z,15.10
2019-05-25T21:06:30.331Z,15.10
2019-05-25T21:08:58.745Z,15.10
2019-05-25T21:11:27.196Z,15.10
2019-05-25T21:13:55.607Z,15.10
2019-05-25T21:16:24.012Z,15.10
2019-05-25T21:21:20.581Z,15.10
2019-05-25T21:23:48.981Z,15.10
2019-05-25T21:26:17.438Z,15.10
2019-05-25T21:28:45.880Z,15.00
2019-05-25T21:31:14.314Z,15.00
2019-05-25T21:33:42.717Z,15.00
2019-05-25T21:36:11.116Z,15.00
2019-05-25T21:38:39.525Z,15.00
2019-05-25T21:41:07.943Z,15.00
2019-05-25T21:43:36.357Z,15.00
2019-05-25T21:46:04.965Z,14.90
2019-05-25T21:51:01.453Z,14.80
2019-05-25T21:53:29.865Z,14.90
2019-05-25T21:55:58.337Z,14.80
2019-05-25T21:58:26.753Z,14.80
2019-05-25T22:00:55.157Z,14.80
2019-05-25T22:05:51.729Z,14.80
2019-05-25T22:08:20.172Z,14.80
2019-05-25T22:10:48.569Z,14.80
2019-05-25T22:13:28.071Z,14.80
2019-05-25T22:15:47.178Z,14.80
2019-05-25T22:18:15.599Z,14.80
2019-05-25T22:20:43.996Z,14.80
2019-05-25T22:23:12.400Z,14.70
2019-05-25T22:25:40.812Z,14.70
2019-05-25T22:28:09.227Z,14.70
2019-05-25T22:30:37.633Z,14.70
2019-05-25T22:33:06.052Z,14.70
2019-05-25T22:35:34.465Z,14.70
2019-05-25T22:38:02.877Z,14.70
2019-05-25T22:40:31.284Z,14.60
2019-05-25T22:42:59.714Z,14.60
2019-05-25T22:45:28.119Z,14.50
2019-05-25T22:47:56.538Z,14.50
2019-05-25T22:50:24.944Z,14.50
2019-05-25T22:52:53.355Z,14.50
2019-05-25T22:57:49.853Z,14.50
2019-05-25T23:02:46.619Z,14.50
2019-05-25T23:05:15.024Z,14.50
2019-05-25T23:07:43.424Z,14.50
2019-05-25T23:10:12.247Z,14.50
2019-05-25T23:12:40.661Z,14.60
2019-05-25T23:15:09.199Z,14.50
2019-05-25T23:17:37.789Z,14.50
2019-05-25T23:20:07.811Z,14.50
2019-05-25T23:22:36.228Z,14.50
2019-05-25T23:27:33.276Z,14.40
2019-05-25T23:34:57.856Z,14.40
2019-05-25T23:37:26.257Z,14.40
2019-05-25T23:39:54.680Z,14.40
2019-05-25T23:42:23.080Z,14.40
2019-05-25T23:44:51.505Z,14.40
2019-05-25T23:47:19.905Z,14.40
2019-05-25T23:49:48.332Z,14.40
2019-05-25T23:52:16.730Z,14.30
2019-05-25T23:54:45.150Z,14.30
2019-05-25T23:59:41.710Z,14.30
